Time;durP1;ratioP1;P1;durP2;ratioP2;P2;SDS_P1;SDS_P2;PMS_P1;PMS_P2;Temp;Humidity;BMP_temperature;BMP_pressure;BME280_temperature;BME280_humidity;BME280_pressure;Samples;Min_cycle;Max_cycle;Signal;HPM_P1;HPM_P2
2021/10/03 00:00:15;;;;;;;4.10;3.70;;;;;;;13.30;100.00;97331.59;4957583;28;20790;-69
2021/10/03 00:02:49;;;;;;;4.43;4.13;;;;;;;13.24;100.00;97324.41;4953113;28;20237;-69
2021/10/03 00:05:18;;;;;;;3.67;3.47;;;;;;;13.28;100.00;97330.16;4920517;28;20261;-69
2021/10/03 00:07:48;;;;;;;4.17;3.87;;;;;;;13.22;100.00;97342.41;4953517;28;20210;-69
2021/10/03 00:10:17;;;;;;;3.53;3.33;;;;;;;13.32;100.00;97324.22;4948225;28;20214;-69
2021/10/03 00:12:45;;;;;;;4.17;3.87;;;;;;;13.16;100.00;97332.56;4955094;28;20221;-69
2021/10/03 00:15:14;;;;;;;4.10;3.90;;;;;;;13.16;100.00;97336.03;4956718;28;20635;-70
2021/10/03 00:17:42;;;;;;;3.53;3.33;;;;;;;13.02;100.00;97329.00;4955750;28;20735;-69
2021/10/03 00:20:13;;;;;;;3.90;3.60;;;;;;;12.98;100.00;97333.06;4926785;28;20214;-69
2021/10/03 00:22:41;;;;;;;3.80;3.53;;;;;;;12.94;100.00;97334.47;4955766;28;20238;-69
2021/10/03 00:25:13;;;;;;;3.87;3.67;;;;;;;12.80;100.00;97333.56;4961659;28;20878;-70
2021/10/03 00:27:41;;;;;;;4.10;3.90;;;;;;;12.79;100.00;97338.06;4918253;28;20244;-67
2021/10/03 00:30:11;;;;;;;4.03;3.73;;;;;;;12.75;100.00;97334.13;4945813;28;20206;-70
2021/10/03 00:32:39;;;;;;;5.07;3.87;;;;;;;12.78;100.00;97330.28;4958660;28;20234;-68
2021/10/03 00:35:08;;;;;;;4.00;3.70;;;;;;;12.76;100.00;97327.81;4943674;28;22075;-69
2021/10/03 00:37:38;;;;;;;6.53;4.40;;;;;;;12.73;100.00;97328.19;4952425;28;21664;-69
2021/10/03 00:40:08;;;;;;;4.30;4.00;;;;;;;12.65;100.00;97317.72;4957394;28;20206;-69
2021/10/03 00:42:37;;;;;;;4.43;3.73;;;;;;;12.63;100.00;97309.13;4920292;28;20704;-69
2021/10/03 00:45:06;;;;;;;4.20;3.90;;;;;;;12.69;100.00;97306.50;4953158;28;20211;-69
2021/10/03 00:47:34;;;;;;;4.53;3.90;;;;;;;12.72;100.00;97306.13;4956552;28;20211;-69
2021/10/03 00:50:02;;;;;;;5.00;3.83;;;;;;;12.67;100.00;97302.41;4955413;28;20203;-69
2021/10/03 00:52:30;;;;;;;3.97;3.67;;;;;;;12.62;100.00;97302.97;4943813;28;20268;-68
2021/10/03 00:54:59;;;;;;;5.07;4.57;;;;;;;12.64;100.00;97292.97;4953653;28;20907;-68
2021/10/03 00:57:27;;;;;;;4.70;4.40;;;;;;;12.65;100.00;97288.47;4950161;28;20385;-69
2021/10/03 00:59:55;;;;;;;4.33;4.00;;;;;;;12.70;100.00;97291.38;4919421;28;20919;-70
2021/10/03 01:02:23;;;;;;;4.73;4.30;;;;;;;12.58;100.00;97286.59;4959758;28;20245;-69
2021/10/03 01:04:54;;;;;;;4.53;4.13;;;;;;;12.53;100.00;97281.06;4953967;28;20234;-70
2021/10/03 01:07:22;;;;;;;4.43;4.13;;;;;;;12.56;100.00;97290.47;4943899;28;20241;-68
2021/10/03 01:09:50;;;;;;;4.80;4.50;;;;;;;12.53;100.00;97280.22;4954838;28;20214;-67
2021/10/03 01:12:20;;;;;;;4.50;4.10;;;;;;;12.60;100.00;97278.41;4959652;28;20226;-70
2021/10/03 01:14:48;;;;;;;4.80;4.50;;;;;;;12.53;100.00;97277.56;4922350;28;20509;-68
2021/10/03 01:17:16;;;;;;;5.07;4.57;;;;;;;12.51;100.00;97279.59;4951429;28;20743;-68
2021/10/03 01:19:44;;;;;;;4.43;4.10;;;;;;;12.40;100.00;97279.13;4956403;28;20209;-67
2021/10/03 01:22:14;;;;;;;4.53;4.20;;;;;;;12.52;100.00;97281.22;4949050;28;21016;-69
2021/10/03 01:24:42;;;;;;;5.30;4.87;;;;;;;12.44;100.00;97280.38;4953641;28;20215;-67
2021/10/03 01:27:10;;;;;;;5.00;4.60;;;;;;;12.51;100.00;97271.63;4955469;28;20210;-69
2021/10/03 01:29:38;;;;;;;4.70;4.40;;;;;;;12.43;100.00;97276.06;4946768;28;20206;-66
2021/10/03 01:32:07;;;;;;;5.23;4.70;;;;;;;12.44;100.00;97276.88;4937212;28;20281;-69
2021/10/03 01:34:35;;;;;;;5.07;4.67;;;;;;;12.48;100.00;97275.47;4958480;28;20305;-69
2021/10/03 01:37:03;;;;;;;5.37;4.97;;;;;;;12.50;100.00;97267.31;4951994;28;20214;-69
2021/10/03 01:39:33;;;;;;;5.60;4.47;;;;;;;12.44;100.00;97269.75;4948478;28;20217;-69
2021/10/03 01:42:01;;;;;;;5.73;5.10;;;;;;;12.45;100.00;97273.19;4954250;28;20218;-68
2021/10/03 01:44:29;;;;;;;5.07;4.67;;;;;;;12.43;100.00;97277.91;4957929;28;20219;-67
2021/10/03 01:46:57;;;;;;;5.17;4.87;;;;;;;12.43;100.00;97272.56;4920543;28;20210;-69
2021/10/03 01:49:27;;;;;;;5.20;4.87;;;;;;;12.42;100.00;97270.94;4956296;28;20292;-68
2021/10/03 01:51:55;;;;;;;6.00;4.57;;;;;;;12.38;100.00;97275.00;4953965;28;20206;-69
2021/10/03 01:54:23;;;;;;;5.53;5.03;;;;;;;12.35;100.00;97268.25;4943317;28;20218;-68
2021/10/03 01:56:53;;;;;;;6.03;5.43;;;;;;;12.39;100.00;97258.88;4954048;28;20202;-67
2021/10/03 01:59:21;;;;;;;4.90;4.50;;;;;;;12.42;100.00;97269.13;4957859;28;20802;-68
2021/10/03 02:01:49;;;;;;;5.20;4.80;;;;;;;12.39;100.00;97268.66;4921476;28;20888;-68
2021/10/03 02:04:19;;;;;;;5.47;5.07;;;;;;;12.28;100.00;97257.56;4953124;28;20257;-69
2021/10/03 02:06:48;;;;;;;5.40;5.00;;;;;;;12.25;100.00;97260.59;4950305;28;20234;-67
2021/10/03 02:09:18;;;;;;;5.10;4.70;;;;;;;12.27;100.00;97265.72;4956408;28;20215;-69
2021/10/03 02:11:48;;;;;;;5.63;5.13;;;;;;;12.13;100.00;97273.59;4944343;28;20289;-67
2021/10/03 02:14:18;;;;;;;5.73;5.33;;;;;;;12.19;100.00;97260.56;4938673;28;20241;-69
2021/10/03 02:16:47;;;;;;;8.67;5.37;;;;;;;12.12;100.00;97255.19;4919513;28;20225;-69
2021/10/03 02:19:15;;;;;;;6.00;5.50;;;;;;;12.05;100.00;97259.63;4952374;28;20206;-69
2021/10/03 02:21:43;;;;;;;5.50;5.00;;;;;;;12.08;100.00;97245.94;4952595;28;20206;-68
2021/10/03 02:24:12;;;;;;;6.80;6.07;;;;;;;11.99;100.00;97242.59;4952505;28;20230;-69
2021/10/03 02:26:40;;;;;;;6.67;5.97;;;;;;;11.91;100.00;97258.66;4943473;28;20214;-67
2021/10/03 02:29:08;;;;;;;5.73;5.23;;;;;;;11.90;100.00;97244.56;4949167;28;20206;-70
2021/10/03 02:31:38;;;;;;;5.50;5.10;;;;;;;11.86;100.00;97249.41;4904186;28;20778;-69
2021/10/03 02:34:06;;;;;;;5.80;5.30;;;;;;;11.93;100.00;97240.69;4915085;28;20773;-69
2021/10/03 02:36:35;;;;;;;6.63;6.03;;;;;;;11.84;100.00;97243.47;4940657;28;20214;-67
2021/10/03 02:39:04;;;;;;;6.03;5.53;;;;;;;11.84;100.00;97248.78;4952292;28;20199;-68
2021/10/03 02:41:32;;;;;;;7.17;5.53;;;;;;;11.90;100.00;97243.72;4956668;28;20229;-67
2021/10/03 02:44:01;;;;;;;6.20;5.70;;;;;;;11.98;100.00;97240.97;4925799;28;20234;-67
2021/10/03 02:46:29;;;;;;;6.23;5.73;;;;;;;11.97;100.00;97240.13;4954981;28;20213;-67
2021/10/03 02:48:59;;;;;;;6.40;5.70;;;;;;;12.05;100.00;97239.22;4931293;28;20257;-69
2021/10/03 02:51:29;;;;;;;5.83;5.33;;;;;;;12.10;100.00;97249.25;4941435;28;20494;-70
2021/10/03 02:53:58;;;;;;;6.57;5.97;;;;;;;12.10;100.00;97242.09;4952795;28;20241;-68
2021/10/03 02:56:28;;;;;;;6.13;5.67;;;;;;;12.06;100.00;97237.34;4949861;28;20236;-71
2021/10/03 02:58:57;;;;;;;6.10;5.53;;;;;;;12.09;100.00;97232.50;4938957;28;20210;-69
2021/10/03 03:01:25;;;;;;;5.90;5.50;;;;;;;12.15;100.00;97234.38;4950793;28;20502;-71
2021/10/03 03:03:54;;;;;;;5.77;5.37;;;;;;;12.19;100.00;97240.13;4938616;28;20230;-68
2021/10/03 03:06:23;;;;;;;6.23;5.60;;;;;;;12.23;100.00;97232.59;4942021;28;20938;-71
2021/10/03 03:08:51;;;;;;;6.23;5.73;;;;;;;12.23;100.00;97236.06;4952055;28;20209;-69
2021/10/03 03:11:19;;;;;;;6.30;5.70;;;;;;;12.30;100.00;97244.06;4953443;28;20488;-71
2021/10/03 03:13:47;;;;;;;6.67;6.07;;;;;;;12.15;100.00;97245.00;4946290;28;20233;-71
2021/10/03 03:16:15;;;;;;;6.37;5.73;;;;;;;12.16;100.00;97244.00;4949116;28;20202;-71
2021/10/03 03:18:43;;;;;;;5.87;5.10;;;;;;;12.14;100.00;97234.59;4956262;28;20210;-71
2021/10/03 03:21:12;;;;;;;6.40;5.80;;;;;;;12.19;100.00;97237.47;4917117;28;20214;-71
2021/10/03 03:23:41;;;;;;;6.07;5.57;;;;;;;12.22;100.00;97237.09;4953966;28;20238;-71
2021/10/03 03:26:11;;;;;;;5.40;4.80;;;;;;;12.20;100.00;97231.16;4950390;28;20679;-70
2021/10/03 03:28:39;;;;;;;6.33;5.70;;;;;;;12.26;100.00;97237.50;4942526;28;20210;-71
2021/10/03 03:31:07;;;;;;;6.00;5.50;;;;;;;12.41;100.00;97226.78;4949736;28;20805;-69
2021/10/03 03:33:35;;;;;;;6.17;5.63;;;;;;;12.26;100.00;97224.22;4939467;28;20664;-71
2021/10/03 03:36:03;;;;;;;6.70;6.10;;;;;;;12.32;100.00;97222.63;4914687;28;20818;-69
2021/10/03 03:38:35;;;;;;;6.17;5.77;;;;;;;12.38;100.00;97224.50;4951217;28;20579;-69
2021/10/03 03:41:05;;;;;;;6.23;5.73;;;;;;;12.33;100.00;97226.94;4952150;28;20210;-69
2021/10/03 03:43:34;;;;;;;6.60;6.07;;;;;;;12.36;100.00;97227.38;4940465;28;20292;-71
2021/10/03 03:46:02;;;;;;;7.07;6.47;;;;;;;12.35;100.00;97223.09;4953343;28;20676;-69
2021/10/03 03:48:30;;;;;;;7.30;6.80;;;;;;;12.43;100.00;97220.28;4945867;28;20599;-70
2021/10/03 03:50:58;;;;;;;7.03;5.53;;;;;;;12.44;100.00;97229.03;4932444;28;20603;-68
2021/10/03 03:53:26;;;;;;;8.23;7.40;;;;;;;12.39;100.00;97220.84;4941547;28;20636;-70
2021/10/03 03:55:54;;;;;;;6.73;6.03;;;;;;;12.41;100.00;97224.13;4937152;28;20311;-70
2021/10/03 03:58:24;;;;;;;6.43;5.93;;;;;;;12.48;100.00;97210.88;4951571;28;20218;-70
2021/10/03 04:00:56;;;;;;;7.13;6.50;;;;;;;12.42;100.00;97215.97;4928129;28;20432;-71
2021/10/03 04:03:24;;;;;;;7.13;6.53;;;;;;;12.40;100.00;97209.19;4947518;28;20254;-70
2021/10/03 04:05:52;;;;;;;7.50;6.90;;;;;;;12.40;100.00;97195.91;4956371;28;20500;-70
2021/10/03 04:08:23;;;;;;;7.50;6.90;;;;;;;12.37;100.00;97191.84;4925875;28;20233;-69
2021/10/03 04:10:51;;;;;;;6.83;6.23;;;;;;;12.45;100.00;97193.50;4951533;28;20703;-70
2021/10/03 04:13:20;;;;;;;8.03;6.77;;;;;;;12.50;100.00;97201.72;4954831;28;20786;-70
2021/10/03 04:15:49;;;;;;;7.13;6.43;;;;;;;12.48;100.00;97197.59;4931497;28;20921;-70
2021/10/03 04:18:18;;;;;;;6.87;6.27;;;;;;;12.47;100.00;97193.31;4955853;28;20257;-69
2021/10/03 04:20:46;;;;;;;6.80;6.20;;;;;;;12.49;100.00;97199.25;4938718;28;20234;-69
2021/10/03 04:23:14;;;;;;;6.97;6.37;;;;;;;12.57;100.00;97197.25;4921139;28;20238;-69
2021/10/03 04:25:42;;;;;;;6.80;6.30;;;;;;;12.44;100.00;97195.34;4949388;28;20203;-69
2021/10/03 04:28:10;;;;;;;6.77;6.17;;;;;;;12.49;100.00;97199.25;4924548;28;20233;-69
2021/10/03 04:30:38;;;;;;;7.10;6.50;;;;;;;12.43;100.00;97195.53;4931956;28;20339;-68
2021/10/03 04:33:07;;;;;;;7.20;6.60;;;;;;;12.41;100.00;97197.56;4949547;28;20226;-67
2021/10/03 04:35:35;;;;;;;6.40;5.90;;;;;;;12.43;100.00;97191.03;4950410;28;20214;-71
2021/10/03 04:38:04;;;;;;;6.60;6.10;;;;;;;12.49;100.00;97196.59;4921079;28;20206;-68
2021/10/03 04:40:32;;;;;;;7.10;6.40;;;;;;;12.50;100.00;97199.06;4954320;28;20213;-70
2021/10/03 04:43:00;;;;;;;7.40;6.70;;;;;;;12.53;100.00;97196.00;4923869;28;20248;-69
2021/10/03 04:45:28;;;;;;;7.93;7.23;;;;;;;12.52;100.00;97185.56;4955577;28;20638;-67
2021/10/03 04:47:56;;;;;;;7.20;6.60;;;;;;;12.61;100.00;97191.53;4944721;28;20226;-70
2021/10/03 04:50:25;;;;;;;6.97;6.47;;;;;;;12.62;100.00;97186.00;4938816;28;21524;-71
2021/10/03 04:52:53;;;;;;;7.27;6.47;;;;;;;12.65;100.00;97188.28;4950932;28;20234;-71
2021/10/03 04:55:21;;;;;;;7.20;6.57;;;;;;;12.61;100.00;97181.72;4943579;28;20892;-71
2021/10/03 04:57:49;;;;;;;6.80;6.00;;;;;;;12.58;100.00;97185.59;4954812;28;20433;-68
2021/10/03 05:00:17;;;;;;;7.53;6.83;;;;;;;12.56;100.00;97184.97;4916035;28;20218;-68
2021/10/03 05:02:45;;;;;;;7.67;6.93;;;;;;;12.57;100.00;97189.28;4954549;28;20237;-69
2021/10/03 05:05:14;;;;;;;7.67;6.80;;;;;;;12.63;100.00;97184.19;4951855;28;20671;-67
2021/10/03 05:07:43;;;;;;;7.67;7.03;;;;;;;12.59;100.00;97191.72;4956836;28;20233;-66
2021/10/03 05:10:11;;;;;;;7.37;6.77;;;;;;;12.53;100.00;97181.88;4939233;28;20221;-65
2021/10/03 05:12:39;;;;;;;7.67;6.97;;;;;;;12.59;100.00;97199.69;4957374;28;20588;-67
2021/10/03 05:15:07;;;;;;;7.50;6.70;;;;;;;12.50;100.00;97190.25;4920531;28;20610;-66
2021/10/03 05:17:35;;;;;;;7.73;7.03;;;;;;;12.59;100.00;97189.91;4956012;28;20450;-67
2021/10/03 05:20:04;;;;;;;8.00;7.20;;;;;;;12.52;100.00;97182.91;4953552;28;20218;-65
2021/10/03 05:22:32;;;;;;;7.17;6.57;;;;;;;12.63;100.00;97185.00;4956659;28;20237;-67
2021/10/03 05:25:02;;;;;;;6.90;6.37;;;;;;;12.49;100.00;97186.75;4956531;28;20781;-67
2021/10/03 05:27:30;;;;;;;8.00;7.40;;;;;;;12.42;100.00;97184.09;4948988;28;20318;-67
2021/10/03 05:29:58;;;;;;;8.60;7.13;;;;;;;12.33;100.00;97185.25;4921758;28;20265;-67
2021/10/03 05:32:26;;;;;;;9.90;7.70;;;;;;;12.43;100.00;97187.53;4954688;28;20631;-68
2021/10/03 05:34:54;;;;;;;8.33;7.53;;;;;;;12.39;100.00;97184.47;4957607;28;20209;-67
2021/10/03 05:37:22;;;;;;;8.07;7.37;;;;;;;12.36;100.00;97184.88;4954368;28;20206;-68
2021/10/03 05:39:50;;;;;;;7.07;6.37;;;;;;;12.37;100.00;97183.03;4953827;28;20215;-68
2021/10/03 05:42:19;;;;;;;7.73;7.03;;;;;;;12.35;100.00;97191.22;4941739;28;20230;-68
2021/10/03 05:44:47;;;;;;;8.27;7.57;;;;;;;12.35;100.00;97183.22;4955563;28;20237;-68
2021/10/03 05:47:15;;;;;;;7.07;6.37;;;;;;;12.30;100.00;97178.50;4918786;28;20214;-67
2021/10/03 05:49:47;;;;;;;7.37;6.67;;;;;;;12.29;100.00;97189.31;4936982;28;20206;-66
2021/10/03 05:52:16;;;;;;;8.00;7.30;;;;;;;12.28;100.00;97177.03;4953779;28;20602;-67
2021/10/03 05:54:44;;;;;;;7.73;6.93;;;;;;;12.34;100.00;97178.94;4941123;28;21591;-66
2021/10/03 05:57:12;;;;;;;8.60;7.70;;;;;;;12.28;100.00;97180.53;4945403;28;20213;-67
2021/10/03 05:59:41;;;;;;;7.60;7.00;;;;;;;12.24;100.00;97186.41;4952933;28;20531;-66
2021/10/03 06:02:09;;;;;;;8.10;7.33;;;;;;;12.20;100.00;97185.16;4920907;28;20428;-68
2021/10/03 06:04:38;;;;;;;7.40;6.73;;;;;;;12.36;100.00;97194.66;4948539;28;20227;-66
2021/10/03 06:07:06;;;;;;;7.40;6.70;;;;;;;12.37;100.00;97189.16;4949910;28;20448;-68
2021/10/03 06:09:34;;;;;;;7.63;6.97;;;;;;;12.41;100.00;97187.75;4938413;28;20207;-66
2021/10/03 06:12:04;;;;;;;7.10;6.60;;;;;;;12.55;100.00;97187.81;4940989;28;20451;-68
2021/10/03 06:14:32;;;;;;;8.23;7.47;;;;;;;12.61;100.00;97197.66;4956902;28;20220;-68
2021/10/03 06:17:01;;;;;;;8.53;7.73;;;;;;;12.54;100.00;97192.34;4908246;28;20656;-68
2021/10/03 06:19:29;;;;;;;7.93;7.27;;;;;;;12.54;100.00;97194.16;4950773;28;20715;-66
2021/10/03 06:21:59;;;;;;;7.63;6.93;;;;;;;12.58;100.00;97192.75;4953351;28;20686;-68
2021/10/03 06:24:27;;;;;;;7.70;6.90;;;;;;;12.70;100.00;97190.34;4947095;28;20230;-68
2021/10/03 06:26:55;;;;;;;7.63;6.93;;;;;;;12.69;100.00;97191.38;4930404;28;20219;-68
2021/10/03 06:29:23;;;;;;;8.27;7.57;;;;;;;12.68;100.00;97203.03;4950703;28;20213;-68
2021/10/03 06:31:52;;;;;;;7.53;6.83;;;;;;;12.72;100.00;97205.09;4907810;28;20218;-68
2021/10/03 06:34:21;;;;;;;7.70;7.10;;;;;;;12.88;100.00;97195.13;4952531;28;20293;-68
2021/10/03 06:36:49;;;;;;;7.30;6.57;;;;;;;12.98;100.00;97202.75;4951241;28;20207;-67
2021/10/03 06:39:17;;;;;;;7.20;6.57;;;;;;;13.10;100.00;97195.81;4942952;28;20210;-66
2021/10/03 06:41:46;;;;;;;7.37;6.67;;;;;;;13.14;100.00;97196.25;4937812;28;20218;-68
2021/10/03 06:44:14;;;;;;;8.10;7.27;;;;;;;13.20;100.00;97206.09;4943324;28;20623;-68
2021/10/03 06:46:42;;;;;;;6.83;6.27;;;;;;;13.35;100.00;97197.13;4947344;28;20484;-69
2021/10/03 06:49:10;;;;;;;7.97;7.23;;;;;;;13.46;100.00;97204.56;4884038;28;20222;-69
2021/10/03 06:51:42;;;;;;;8.70;6.83;;;;;;;13.55;100.00;97202.50;4939896;28;20218;-68
2021/10/03 06:54:10;;;;;;;7.33;6.73;;;;;;;13.60;100.00;97195.56;4939906;28;20225;-70
2021/10/03 06:56:39;;;;;;;7.40;6.80;;;;;;;13.78;100.00;97196.78;4940933;28;20215;-68
2021/10/03 06:59:07;;;;;;;6.80;6.20;;;;;;;13.91;100.00;97201.31;4943012;28;20550;-69
2021/10/03 07:01:35;;;;;;;7.53;6.93;;;;;;;13.99;100.00;97202.97;4950172;28;20202;-67
2021/10/03 07:04:03;;;;;;;7.43;6.80;;;;;;;14.11;100.00;97195.16;4918837;28;20431;-69
2021/10/03 07:06:31;;;;;;;7.07;6.53;;;;;;;14.18;100.00;97198.66;4949130;28;20237;-68
2021/10/03 07:09:01;;;;;;;9.67;6.40;;;;;;;14.24;100.00;97189.81;4949799;28;20217;-69
2021/10/03 07:11:29;;;;;;;7.27;6.57;;;;;;;14.29;100.00;97197.19;4943833;28;20224;-68
2021/10/03 07:13:57;;;;;;;7.63;7.00;;;;;;;14.42;100.00;97201.69;4942008;28;20251;-68
2021/10/03 07:16:25;;;;;;;7.77;7.03;;;;;;;14.54;100.00;97188.53;4954267;28;20223;-68
2021/10/03 07:18:53;;;;;;;7.27;6.60;;;;;;;14.57;100.00;97193.44;4952930;28;20198;-66
2021/10/03 07:21:21;;;;;;;6.50;5.90;;;;;;;14.71;100.00;97196.91;4920491;28;20438;-69
2021/10/03 07:23:49;;;;;;;7.73;7.13;;;;;;;14.83;100.00;97197.91;4948337;28;20252;-69
2021/10/03 07:26:18;;;;;;;7.17;6.47;;;;;;;14.99;100.00;97198.47;4955157;28;20229;-69
2021/10/03 07:28:46;;;;;;;7.07;5.90;;;;;;;15.03;100.00;97197.00;4937221;28;20658;-69
2021/10/03 07:31:14;;;;;;;7.03;6.43;;;;;;;15.11;100.00;97204.75;4955304;28;20215;-69
2021/10/03 07:33:43;;;;;;;6.47;5.87;;;;;;;15.14;100.00;97193.66;4953540;28;20732;-68
2021/10/03 07:36:11;;;;;;;6.30;5.80;;;;;;;15.18;100.00;97194.88;4925836;28;20238;-69
2021/10/03 07:38:39;;;;;;;7.43;6.73;;;;;;;15.38;100.00;97204.63;4944568;28;20218;-68
2021/10/03 07:41:07;;;;;;;7.10;6.40;;;;;;;15.41;100.00;97201.53;4957386;28;20714;-69
2021/10/03 07:43:37;;;;;;;7.10;6.57;;;;;;;15.56;100.00;97200.44;4946198;28;20241;-68
2021/10/03 07:46:05;;;;;;;6.70;6.13;;;;;;;15.67;100.00;97199.72;4943903;28;20481;-67
2021/10/03 07:48:33;;;;;;;7.00;6.33;;;;;;;15.81;100.00;97199.63;4956105;28;20686;-67
2021/10/03 07:51:01;;;;;;;6.63;6.13;;;;;;;15.75;100.00;97199.44;4921466;28;20221;-70
2021/10/03 07:53:30;;;;;;;5.80;5.20;;;;;;;15.80;100.00;97195.31;4953592;28;20233;-68
2021/10/03 07:55:58;;;;;;;6.10;5.60;;;;;;;15.70;100.00;97207.31;4944074;28;20206;-69
2021/10/03 07:58:26;;;;;;;8.17;5.70;;;;;;;15.64;100.00;97205.50;4947395;28;20753;-68
2021/10/03 08:00:55;;;;;;;6.30;5.70;;;;;;;15.77;100.00;97216.09;4944665;28;20210;-70
2021/10/03 08:03:23;;;;;;;6.13;5.63;;;;;;;15.62;100.00;97213.72;4954175;28;20241;-69
2021/10/03 08:05:51;;;;;;;6.60;6.00;;;;;;;15.70;100.00;97218.00;4921416;28;20422;-67
2021/10/03 08:08:20;;;;;;;5.93;5.47;;;;;;;15.75;100.00;97226.16;4957471;28;20217;-69
2021/10/03 08:10:48;;;;;;;6.60;6.00;;;;;;;15.83;100.00;97214.41;4957119;28;20210;-69
2021/10/03 08:13:16;;;;;;;6.50;6.00;;;;;;;15.79;100.00;97213.22;4958154;28;20237;-69
2021/10/03 08:15:44;;;;;;;5.97;5.47;;;;;;;15.91;100.00;97200.81;4935840;28;20214;-70
2021/10/03 08:18:13;;;;;;;5.70;5.30;;;;;;;16.14;100.00;97194.03;4955691;28;20290;-69
2021/10/03 08:20:42;;;;;;;5.53;5.07;;;;;;;16.44;100.00;97205.91;4923609;28;20579;-67
2021/10/03 08:23:10;;;;;;;6.00;5.50;;;;;;;16.42;100.00;97213.31;4957827;28;20234;-69
2021/10/03 08:25:39;;;;;;;5.43;5.03;;;;;;;16.36;100.00;97209.66;4953579;28;20234;-68
2021/10/03 08:28:07;;;;;;;5.50;5.00;;;;;;;16.39;100.00;97201.19;4947627;28;20202;-70
2021/10/03 08:30:35;;;;;;;5.63;5.17;;;;;;;16.55;100.00;97204.34;4940337;28;20218;-68
2021/10/03 08:33:03;;;;;;;5.53;5.17;;;;;;;16.82;100.00;97206.72;4950841;28;20717;-69
2021/10/03 08:35:34;;;;;;;5.80;5.30;;;;;;;17.16;100.00;97201.81;4936634;28;20206;-68
2021/10/03 08:38:02;;;;;;;5.33;4.87;;;;;;;17.50;100.00;97210.22;4945528;28;20226;-69
2021/10/03 08:40:30;;;;;;;8.50;5.47;;;;;;;17.74;100.00;97200.38;4939649;28;20217;-68
2021/10/03 08:42:58;;;;;;;5.03;4.67;;;;;;;18.06;100.00;97212.72;4951099;28;21001;-69
2021/10/03 08:45:27;;;;;;;5.33;5.00;;;;;;;18.33;100.00;97212.22;4946763;28;20214;-69
2021/10/03 08:47:55;;;;;;;5.13;4.63;;;;;;;18.12;100.00;97203.72;4942457;28;20895;-68
2021/10/03 08:50:24;;;;;;;5.57;5.07;;;;;;;18.18;100.00;97202.81;4955993;28;20281;-69
2021/10/03 08:52:53;;;;;;;4.87;4.47;;;;;;;18.41;100.00;97206.53;4925355;28;20226;-70
2021/10/03 08:55:21;;;;;;;5.47;5.07;;;;;;;18.57;100.00;97204.19;4951429;28;20203;-68
2021/10/03 08:57:49;;;;;;;5.27;4.77;;;;;;;18.73;100.00;97203.44;4908221;28;20221;-68
2021/10/03 09:00:19;;;;;;;5.50;5.00;;;;;;;18.92;100.00;97208.69;4947043;28;20213;-69
2021/10/03 09:03:02;;;;;;;4.37;4.07;;;;;;;19.10;98.65;97205.03;4938312;28;20226;-69
2021/10/03 09:05:33;;;;;;;5.23;4.83;;;;;;;19.07;99.69;97198.25;4951547;28;20214;-69
2021/10/03 09:08:08;;;;;;;5.90;4.63;;;;;;;19.09;100.00;97198.03;4942237;28;20203;-69
2021/10/03 09:11:05;;;;;;;5.70;4.83;;;;;;;19.21;99.81;97198.81;4953827;28;20198;-70
2021/10/03 09:13:47;;;;;;;4.90;4.50;;;;;;;19.06;100.00;97199.31;4915320;28;20793;-69
2021/10/03 09:16:20;;;;;;;4.67;4.37;;;;;;;18.95;100.00;97203.66;4936473;28;20210;-69
2021/10/03 09:18:51;;;;;;;5.27;4.77;;;;;;;18.91;100.00;97199.00;4942822;28;20221;-69
2021/10/03 09:21:38;;;;;;;5.20;4.80;;;;;;;19.05;100.00;97202.25;4940811;28;20206;-68
2021/10/03 09:24:09;;;;;;;5.23;4.83;;;;;;;19.16;100.00;97197.91;4947411;28;20306;-69
2021/10/03 09:26:39;;;;;;;6.00;4.77;;;;;;;18.79;100.00;97213.25;4957336;28;20222;-69
2021/10/03 09:29:22;;;;;;;4.80;4.40;;;;;;;18.66;100.00;97202.78;4922385;28;20290;-70
2021/10/03 09:32:08;;;;;;;5.23;4.73;;;;;;;18.57;100.00;97202.34;4951580;28;20234;-69
2021/10/03 09:34:37;;;;;;;4.70;4.30;;;;;;;18.50;100.00;97204.31;4938242;28;20210;-69
2021/10/03 09:37:23;;;;;;;3.97;3.77;;;;;;;18.62;100.00;97209.66;4939250;28;20523;-71
2021/10/03 09:40:01;;;;;;;4.53;4.23;;;;;;;18.49;100.00;97219.59;4951654;28;20206;-69
2021/10/03 09:42:29;;;;;;;4.57;4.13;;;;;;;18.55;100.00;97217.03;4952370;28;20355;-68
2021/10/03 09:45:08;;;;;;;5.50;5.10;;;;;;;18.48;100.00;97215.28;4919555;28;20225;-70
2021/10/03 09:47:37;;;;;;;5.60;5.10;;;;;;;18.40;100.00;97210.28;4952513;28;20226;-70
2021/10/03 09:50:08;;;;;;;4.60;4.30;;;;;;;18.48;100.00;97207.22;4949989;28;20456;-70
2021/10/03 09:52:38;;;;;;;4.60;4.30;;;;;;;18.48;100.00;97203.72;4941199;28;20245;-70
2021/10/03 09:55:13;;;;;;;5.50;5.10;;;;;;;18.51;100.00;97209.44;4948061;28;20663;-70
2021/10/03 09:57:42;;;;;;;4.77;4.43;;;;;;;18.55;100.00;97211.66;4951568;28;20236;-70
2021/10/03 10:00:12;;;;;;;5.20;4.77;;;;;;;18.71;100.00;97200.19;4919403;28;20273;-70
2021/10/03 10:02:40;;;;;;;5.23;4.90;;;;;;;18.64;100.00;97202.19;4950426;28;20234;-69
2021/10/03 10:05:09;;;;;;;4.93;4.53;;;;;;;18.89;100.00;97195.75;4948942;28;20294;-70
2021/10/03 10:07:38;;;;;;;4.50;4.10;;;;;;;19.23;100.00;97201.28;4942532;28;20241;-69
2021/10/03 10:10:08;;;;;;;4.80;4.40;;;;;;;19.38;100.00;97200.75;4954418;28;20229;-70
2021/10/03 10:12:38;;;;;;;5.10;4.57;;;;;;;19.46;100.00;97194.97;4952631;28;20238;-70
2021/10/03 10:15:10;;;;;;;5.07;4.67;;;;;;;19.59;100.00;97191.19;4933046;28;20214;-70
2021/10/03 10:17:40;;;;;;;6.07;4.80;;;;;;;19.82;98.94;97192.06;4954365;28;20210;-70
2021/10/03 10:20:32;;;;;;;4.67;4.27;;;;;;;19.97;98.62;97190.75;4952393;28;20298;-69
2021/10/03 10:23:02;;;;;;;4.50;4.20;;;;;;;20.06;97.51;97181.19;4950410;28;20234;-70
2021/10/03 10:25:46;;;;;;;4.73;4.33;;;;;;;20.33;91.67;97186.72;4942764;28;20859;-70
2021/10/03 10:28:21;;;;;;;4.50;4.10;;;;;;;20.39;95.99;97176.84;4949139;28;20240;-68
2021/10/03 10:31:08;;;;;;;4.70;4.30;;;;;;;20.44;89.62;97176.91;4924711;28;20217;-69
2021/10/03 10:34:04;;;;;;;4.33;4.03;;;;;;;20.64;92.34;97178.22;4949064;28;20240;-70
2021/10/03 10:36:34;;;;;;;4.20;3.90;;;;;;;20.88;90.04;97181.56;4951602;28;20421;-70
2021/10/03 10:39:26;;;;;;;4.93;4.53;;;;;;;20.93;88.22;97167.31;4949803;28;20202;-69
2021/10/03 10:41:59;;;;;;;4.77;4.17;;;;;;;20.69;90.46;97162.19;4945470;28;20213;-69
2021/10/03 10:44:34;;;;;;;4.87;4.47;;;;;;;20.91;89.35;97161.38;4951232;28;20312;-70
2021/10/03 10:47:08;;;;;;;4.23;3.93;;;;;;;20.67;93.56;97162.41;4924444;28;20668;-69
2021/10/03 10:49:40;;;;;;;4.90;4.50;;;;;;;20.81;91.21;97162.88;4949507;28;20217;-70
2021/10/03 10:52:33;;;;;;;4.17;3.87;;;;;;;20.89;91.13;97153.56;4948595;28;20603;-71
2021/10/03 10:55:21;;;;;;;4.37;4.07;;;;;;;21.25;83.77;97153.94;4949061;28;20612;-70
2021/10/03 10:58:11;;;;;;;4.70;4.40;;;;;;;21.22;83.41;97148.25;4950510;28;20213;-69
2021/10/03 11:00:59;;;;;;;4.67;4.30;;;;;;;21.08;84.09;97150.53;4952180;28;20367;-70
2021/10/03 11:04:04;;;;;;;3.80;3.50;;;;;;;21.22;81.51;97151.78;4904523;28;20229;-70
2021/10/03 11:06:59;;;;;;;4.23;3.83;;;;;;;21.63;81.84;97150.53;4930860;28;20224;-68
2021/10/03 11:10:02;;;;;;;4.00;3.70;;;;;;;21.67;80.83;97140.88;4960415;28;20206;-69
2021/10/03 11:12:34;;;;;;;4.37;3.90;;;;;;;21.87;78.03;97136.72;4946191;28;20238;-70
2021/10/03 11:15:28;;;;;;;3.83;3.53;;;;;;;22.04;74.54;97129.28;4958298;28;20292;-70
2021/10/03 11:18:04;;;;;;;3.73;3.43;;;;;;;22.42;71.15;97115.72;4947066;28;20206;-70
2021/10/03 11:20:33;;;;;;;4.07;3.77;;;;;;;22.51;70.79;97124.97;4933748;28;20222;-69
2021/10/03 11:23:01;;;;;;;4.20;3.67;;;;;;;22.89;67.15;97110.53;4959615;28;20237;-69
2021/10/03 11:25:30;;;;;;;3.57;3.30;;;;;;;23.02;65.54;97107.34;4959462;28;20225;-69
2021/10/03 11:27:58;;;;;;;4.23;3.83;;;;;;;23.13;66.03;97116.28;4943360;28;20222;-70
2021/10/03 11:30:29;;;;;;;3.73;3.53;;;;;;;23.29;64.19;97121.75;4959656;28;20211;-70
2021/10/03 11:32:57;;;;;;;3.47;3.20;;;;;;;23.11;64.42;97116.53;4949987;28;20670;-71
2021/10/03 11:35:27;;;;;;;3.80;3.50;;;;;;;23.01;65.33;97121.94;4930668;28;20257;-69
2021/10/03 11:38:01;;;;;;;4.00;3.70;;;;;;;22.92;63.56;97128.91;4955517;28;20209;-70
2021/10/03 11:40:31;;;;;;;3.80;3.03;;;;;;;22.98;62.91;97119.78;4955897;28;20210;-69